sensor_id;sensor_type;location;lat;lon;timestamp;P1;durP1;ratioP1;P2;durP2;ratioP2
8232;SDS011;4157;48.074;9.952;2024-03-23T00:54:08;4.43;;;2.17;;
8232;SDS011;4157;48.074;9.952;2024-03-23T00:56:36;5.40;;;2.67;;
8232;SDS011;4157;48.074;9.952;2024-03-23T00:59:02;4.40;;;2.50;;
8232;SDS011;4157;48.074;9.952;2024-03-23T01:01:30;5.82;;;2.22;;
8232;SDS011;4157;48.074;9.952;2024-03-23T01:03:57;4.82;;;2.63;;
8232;SDS011;4157;48.074;9.952;2024-03-23T01:06:25;6.13;;;2.72;;
8232;SDS011;4157;48.074;9.952;2024-03-23T01:08:51;5.47;;;2.50;;
8232;SDS011;4157;48.074;9.952;2024-03-23T01:11:20;6.10;;;2.50;;
8232;SDS011;4157;48.074;9.952;2024-03-23T01:13:47;5.45;;;2.63;;
8232;SDS011;4157;48.074;9.952;2024-03-23T01:16:14;4.72;;;2.47;;
8232;SDS011;4157;48.074;9.952;2024-03-23T01:18:41;4.32;;;2.45;;
8232;SDS011;4157;48.074;9.952;2024-03-23T01:21:09;6.13;;;2.80;;
8232;SDS011;4157;48.074;9.952;2024-03-23T01:23:36;6.55;;;2.55;;
8232;SDS011;4157;48.074;9.952;2024-03-23T01:26:03;5.43;;;2.65;;
8232;SDS011;4157;48.074;9.952;2024-03-23T01:28:31;4.25;;;2.20;;
8232;SDS011;4157;48.074;9.952;2024-03-23T01:30:59;4.45;;;2.30;;
8232;SDS011;4157;48.074;9.952;2024-03-23T01:33:26;4.30;;;2.40;;
8232;SDS011;4157;48.074;9.952;2024-03-23T01:35:53;4.88;;;2.53;;
8232;SDS011;4157;48.074;9.952;2024-03-23T01:38:20;5.15;;;2.40;;
8232;SDS011;4157;48.074;9.952;2024-03-23T01:40:48;6.47;;;3.00;;
8232;SDS011;4157;48.074;9.952;2024-03-23T01:43:14;4.22;;;2.63;;
8232;SDS011;4157;48.074;9.952;2024-03-23T01:45:43;4.75;;;2.38;;
8232;SDS011;4157;48.074;9.952;2024-03-23T01:48:10;6.53;;;3.58;;
8232;SDS011;4157;48.074;9.952;2024-03-23T01:50:38;5.70;;;2.80;;
8232;SDS011;4157;48.074;9.952;2024-03-23T01:53:05;6.20;;;2.95;;
8232;SDS011;4157;48.074;9.952;2024-03-23T01:55:33;6.82;;;2.70;;
8232;SDS011;4157;48.074;9.952;2024-03-23T01:58:00;5.43;;;2.60;;
8232;SDS011;4157;48.074;9.952;2024-03-23T02:00:27;4.22;;;2.42;;
8232;SDS011;4157;48.074;9.952;2024-03-23T02:02:56;5.45;;;2.83;;
8232;SDS011;4157;48.074;9.952;2024-03-23T02:05:23;5.55;;;3.00;;
8232;SDS011;4157;48.074;9.952;2024-03-23T02:07:50;6.43;;;3.08;;
8232;SDS011;4157;48.074;9.952;2024-03-23T02:10:18;5.55;;;3.05;;
8232;SDS011;4157;48.074;9.952;2024-03-23T02:12:45;6.35;;;3.05;;
8232;SDS011;4157;48.074;9.952;2024-03-23T02:15:12;6.72;;;2.72;;
8232;SDS011;4157;48.074;9.952;2024-03-23T02:17:39;4.85;;;2.65;;
8232;SDS011;4157;48.074;9.952;2024-03-23T02:20:08;4.53;;;2.55;;
8232;SDS011;4157;48.074;9.952;2024-03-23T02:22:36;4.97;;;2.40;;
8232;SDS011;4157;48.074;9.952;2024-03-23T02:25:05;5.40;;;2.83;;
8232;SDS011;4157;48.074;9.952;2024-03-23T02:27:32;5.63;;;3.08;;
8232;SDS011;4157;48.074;9.952;2024-03-23T02:30:01;4.60;;;2.58;;
8232;SDS011;4157;48.074;9.952;2024-03-23T02:32:29;4.80;;;2.63;;
8232;SDS011;4157;48.074;9.952;2024-03-23T02:34:57;4.93;;;2.65;;
8232;SDS011;4157;48.074;9.952;2024-03-23T02:37:24;4.97;;;2.42;;
8232;SDS011;4157;48.074;9.952;2024-03-23T02:39:51;6.53;;;2.40;;
8232;SDS011;4157;48.074;9.952;2024-03-23T02:42:19;6.35;;;2.42;;
8232;SDS011;4157;48.074;9.952;2024-03-23T02:44:47;6.88;;;2.50;;
8232;SDS011;4157;48.074;9.952;2024-03-23T02:47:14;6.55;;;2.80;;
8232;SDS011;4157;48.074;9.952;2024-03-23T02:49:41;5.30;;;2.63;;
8232;SDS011;4157;48.074;9.952;2024-03-23T02:52:08;4.97;;;2.38;;
8232;SDS011;4157;48.074;9.952;2024-03-23T02:54:36;5.57;;;2.35;;
8232;SDS011;4157;48.074;9.952;2024-03-23T02:57:03;3.85;;;2.25;;
8232;SDS011;4157;48.074;9.952;2024-03-23T02:59:32;6.07;;;2.60;;
8232;SDS011;4157;48.074;9.952;2024-03-23T03:01:58;4.65;;;2.33;;
8232;SDS011;4157;48.074;9.952;2024-03-23T03:04:26;4.60;;;2.22;;
8232;SDS011;4157;48.074;9.952;2024-03-23T03:06:53;5.38;;;2.30;;
8232;SDS011;4157;48.074;9.952;2024-03-23T03:09:21;5.90;;;2.47;;
8232;SDS011;4157;48.074;9.952;2024-03-23T03:11:47;6.30;;;2.50;;
8232;SDS011;4157;48.074;9.952;2024-03-23T03:14:15;4.80;;;2.63;;
8232;SDS011;4157;48.074;9.952;2024-03-23T03:16:43;5.20;;;2.40;;
8232;SDS011;4157;48.074;9.952;2024-03-23T03:19:11;6.03;;;2.70;;
8232;SDS011;4157;48.074;9.952;2024-03-23T03:21:38;5.45;;;2.40;;
8232;SDS011;4157;48.074;9.952;2024-03-23T03:24:06;4.93;;;2.38;;
8232;SDS011;4157;48.074;9.952;2024-03-23T03:26:32;5.22;;;2.47;;
8232;SDS011;4157;48.074;9.952;2024-03-23T03:29:00;5.00;;;2.35;;
8232;SDS011;4157;48.074;9.952;2024-03-23T03:31:27;5.35;;;2.65;;
8232;SDS011;4157;48.074;9.952;2024-03-23T03:33:56;4.60;;;2.65;;
8232;SDS011;4157;48.074;9.952;2024-03-23T03:36:23;7.47;;;2.60;;
8232;SDS011;4157;48.074;9.952;2024-03-23T03:38:50;4.28;;;2.25;;
8232;SDS011;4157;48.074;9.952;2024-03-23T03:41:18;8.18;;;2.58;;
8232;SDS011;4157;48.074;9.952;2024-03-23T03:43:46;4.43;;;2.78;;
8232;SDS011;4157;48.074;9.952;2024-03-23T03:46:13;5.72;;;2.38;;
8232;SDS011;4157;48.074;9.952;2024-03-23T03:48:40;4.72;;;2.53;;
8232;SDS011;4157;48.074;9.952;2024-03-23T03:51:08;5.50;;;2.40;;
8232;SDS011;4157;48.074;9.952;2024-03-23T03:53:36;4.95;;;2.50;;
8232;SDS011;4157;48.074;9.952;2024-03-23T03:56:03;5.10;;;2.50;;
8232;SDS011;4157;48.074;9.952;2024-03-23T03:58:31;4.85;;;2.50;;
8232;SDS011;4157;48.074;9.952;2024-03-23T04:00:57;4.63;;;2.20;;
8232;SDS011;4157;48.074;9.952;2024-03-23T04:03:25;5.43;;;2.25;;
8232;SDS011;4157;48.074;9.952;2024-03-23T04:05:52;5.38;;;2.58;;
8232;SDS011;4157;48.074;9.952;2024-03-23T04:08:21;4.28;;;2.38;;
8232;SDS011;4157;48.074;9.952;2024-03-23T04:10:48;5.35;;;2.40;;
8232;SDS011;4157;48.074;9.952;2024-03-23T04:13:15;5.32;;;2.45;;
8232;SDS011;4157;48.074;9.952;2024-03-23T04:15:42;5.20;;;2.35;;
8232;SDS011;4157;48.074;9.952;2024-03-23T04:18:10;4.60;;;2.33;;
8232;SDS011;4157;48.074;9.952;2024-03-23T04:20:37;4.70;;;2.53;;
8232;SDS011;4157;48.074;9.952;2024-03-23T04:23:04;4.68;;;2.30;;
8232;SDS011;4157;48.074;9.952;2024-03-23T04:25:32;4.25;;;2.47;;
8232;SDS011;4157;48.074;9.952;2024-03-23T04:28:00;4.50;;;2.63;;
8232;SDS011;4157;48.074;9.952;2024-03-23T04:30:27;6.63;;;2.58;;
8232;SDS011;4157;48.074;9.952;2024-03-23T04:32:55;7.97;;;3.88;;
8232;SDS011;4157;48.074;9.952;2024-03-23T04:35:22;5.07;;;2.65;;
8232;SDS011;4157;48.074;9.952;2024-03-23T04:37:51;4.28;;;2.30;;
8232;SDS011;4157;48.074;9.952;2024-03-23T04:40:19;4.60;;;2.40;;
8232;SDS011;4157;48.074;9.952;2024-03-23T04:42:48;4.78;;;2.55;;
8232;SDS011;4157;48.074;9.952;2024-03-23T04:45:16;5.00;;;2.40;;
8232;SDS011;4157;48.074;9.952;2024-03-23T04:47:43;5.75;;;2.97;;
8232;SDS011;4157;48.074;9.952;2024-03-23T04:50:11;4.20;;;2.55;;
8232;SDS011;4157;48.074;9.952;2024-03-23T04:52:39;4.60;;;2.17;;
8232;SDS011;4157;48.074;9.952;2024-03-23T04:55:09;5.32;;;2.60;;
8232;SDS011;4157;48.074;9.952;2024-03-23T04:57:37;4.05;;;2.35;;
8232;SDS011;4157;48.074;9.952;2024-03-23T05:00:06;4.28;;;2.28;;
8232;SDS011;4157;48.074;9.952;2024-03-23T05:02:43;6.18;;;2.25;;
8232;SDS011;4157;48.074;9.952;2024-03-23T05:05:11;3.90;;;2.30;;
8232;SDS011;4157;48.074;9.952;2024-03-23T05:07:39;6.15;;;2.55;;
8232;SDS011;4157;48.074;9.952;2024-03-23T05:10:09;4.43;;;2.03;;
8232;SDS011;4157;48.074;9.952;2024-03-23T05:12:38;6.13;;;2.42;;
8232;SDS011;4157;48.074;9.952;2024-03-23T05:15:06;5.53;;;2.40;;
8232;SDS011;4157;48.074;9.952;2024-03-23T05:17:34;5.43;;;2.35;;
8232;SDS011;4157;48.074;9.952;2024-03-23T05:20:03;7.10;;;2.25;;
8232;SDS011;4157;48.074;9.952;2024-03-23T05:22:30;4.50;;;2.45;;
8232;SDS011;4157;48.074;9.952;2024-03-23T05:24:58;4.38;;;2.38;;
8232;SDS011;4157;48.074;9.952;2024-03-23T05:27:24;5.28;;;2.65;;
8232;SDS011;4157;48.074;9.952;2024-03-23T05:29:52;5.93;;;2.60;;
8232;SDS011;4157;48.074;9.952;2024-03-23T05:32:20;6.10;;;2.28;;
8232;SDS011;4157;48.074;9.952;2024-03-23T05:34:48;4.88;;;2.08;;
8232;SDS011;4157;48.074;9.952;2024-03-23T05:37:17;5.03;;;2.42;;
8232;SDS011;4157;48.074;9.952;2024-03-23T05:39:45;5.80;;;2.38;;
8232;SDS011;4157;48.074;9.952;2024-03-23T05:42:13;4.43;;;2.30;;
8232;SDS011;4157;48.074;9.952;2024-03-23T05:44:42;5.85;;;2.47;;
8232;SDS011;4157;48.074;9.952;2024-03-23T05:47:09;4.55;;;2.08;;
8232;SDS011;4157;48.074;9.952;2024-03-23T05:49:38;6.80;;;2.00;;
8232;SDS011;4157;48.074;9.952;2024-03-23T05:52:04;4.03;;;2.38;;
8232;SDS011;4157;48.074;9.952;2024-03-23T05:54:32;4.70;;;2.20;;
8232;SDS011;4157;48.074;9.952;2024-03-23T05:56:59;5.20;;;2.30;;
8232;SDS011;4157;48.074;9.952;2024-03-23T05:59:26;5.22;;;2.30;;
8232;SDS011;4157;48.074;9.952;2024-03-23T06:01:53;4.72;;;2.40;;
8232;SDS011;4157;48.074;9.952;2024-03-23T06:04:21;4.85;;;2.10;;
8232;SDS011;4157;48.074;9.952;2024-03-23T06:06:50;4.97;;;2.35;;
8232;SDS011;4157;48.074;9.952;2024-03-23T06:09:17;4.80;;;2.85;;
8232;SDS011;4157;48.074;9.952;2024-03-23T06:11:45;5.13;;;2.85;;
8232;SDS011;4157;48.074;9.952;2024-03-23T06:14:12;6.20;;;2.47;;
8232;SDS011;4157;48.074;9.952;2024-03-23T06:16:39;6.90;;;3.65;;
8232;SDS011;4157;48.074;9.952;2024-03-23T06:19:07;5.88;;;2.72;;
8232;SDS011;4157;48.074;9.952;2024-03-23T06:21:34;6.38;;;3.00;;
8232;SDS011;4157;48.074;9.952;2024-03-23T06:24:03;7.88;;;3.08;;
8232;SDS011;4157;48.074;9.952;2024-03-23T06:26:30;4.20;;;2.40;;
8232;SDS011;4157;48.074;9.952;2024-03-23T06:28:57;8.13;;;3.83;;
8232;SDS011;4157;48.074;9.952;2024-03-23T06:31:24;5.20;;;2.80;;
8232;SDS011;4157;48.074;9.952;2024-03-23T06:33:52;5.00;;;2.65;;
8232;SDS011;4157;48.074;9.952;2024-03-23T06:36:18;5.85;;;3.00;;
8232;SDS011;4157;48.074;9.952;2024-03-23T06:38:46;5.88;;;3.00;;
8232;SDS011;4157;48.074;9.952;2024-03-23T06:41:14;5.50;;;3.10;;
8232;SDS011;4157;48.074;9.952;2024-03-23T06:43:42;5.22;;;2.97;;
8232;SDS011;4157;48.074;9.952;2024-03-23T06:46:09;5.97;;;3.47;;
8232;SDS011;4157;48.074;9.952;2024-03-23T06:48:37;5.50;;;3.20;;
8232;SDS011;4157;48.074;9.952;2024-03-23T06:51:04;6.38;;;3.15;;
8232;SDS011;4157;48.074;9.952;2024-03-23T06:53:32;6.65;;;3.40;;
8232;SDS011;4157;48.074;9.952;2024-03-23T06:55:58;6.95;;;3.50;;
8232;SDS011;4157;48.074;9.952;2024-03-23T06:58:28;4.93;;;3.30;;
8232;SDS011;4157;48.074;9.952;2024-03-23T07:00:54;5.65;;;3.42;;
8232;SDS011;4157;48.074;9.952;2024-03-23T07:03:22;4.80;;;2.97;;
8232;SDS011;4157;48.074;9.952;2024-03-23T07:05:49;5.32;;;3.13;;
8232;SDS011;4157;48.074;9.952;2024-03-23T07:08:17;7.43;;;3.20;;
8232;SDS011;4157;48.074;9.952;2024-03-23T07:10:47;5.60;;;3.10;;
8232;SDS011;4157;48.074;9.952;2024-03-23T07:13:15;4.97;;;2.72;;
8232;SDS011;4157;48.074;9.952;2024-03-23T07:15:44;6.13;;;3.40;;
8232;SDS011;4157;48.074;9.952;2024-03-23T07:18:18;6.53;;;3.53;;
8232;SDS011;4157;48.074;9.952;2024-03-23T07:20:51;5.53;;;3.53;;
8232;SDS011;4157;48.074;9.952;2024-03-23T07:23:19;7.10;;;3.30;;
8232;SDS011;4157;48.074;9.952;2024-03-23T07:25:55;6.70;;;3.65;;
8232;SDS011;4157;48.074;9.952;2024-03-23T07:28:23;6.45;;;4.38;;
8232;SDS011;4157;48.074;9.952;2024-03-23T07:31:01;6.88;;;3.65;;
8232;SDS011;4157;48.074;9.952;2024-03-23T07:33:29;6.68;;;4.30;;
8232;SDS011;4157;48.074;9.952;2024-03-23T07:35:56;5.65;;;3.90;;
8232;SDS011;4157;48.074;9.952;2024-03-23T07:38:25;7.22;;;4.15;;
8232;SDS011;4157;48.074;9.952;2024-03-23T07:40:52;6.93;;;4.15;;
8232;SDS011;4157;48.074;9.952;2024-03-23T07:43:21;7.28;;;4.32;;
8232;SDS011;4157;48.074;9.952;2024-03-23T07:45:51;5.80;;;3.40;;
8232;SDS011;4157;48.074;9.952;2024-03-23T07:48:21;5.18;;;3.70;;
8232;SDS011;4157;48.074;9.952;2024-03-23T07:50:55;8.27;;;3.97;;
8232;SDS011;4157;48.074;9.952;2024-03-23T07:53:23;5.93;;;4.10;;
8232;SDS011;4157;48.074;9.952;2024-03-23T07:55:52;7.18;;;4.35;;
8232;SDS011;4157;48.074;9.952;2024-03-23T07:58:19;7.15;;;4.63;;
8232;SDS011;4157;48.074;9.952;2024-03-23T08:00:46;7.00;;;4.57;;
8232;SDS011;4157;48.074;9.952;2024-03-23T08:03:14;8.48;;;4.90;;
8232;SDS011;4157;48.074;9.952;2024-03-23T08:05:42;6.28;;;4.60;;
8232;SDS011;4157;48.074;9.952;2024-03-23T08:08:09;7.20;;;5.30;;
8232;SDS011;4157;48.074;9.952;2024-03-23T08:10:36;7.88;;;5.45;;
8232;SDS011;4157;48.074;9.952;2024-03-23T08:13:04;8.50;;;5.38;;
8232;SDS011;4157;48.074;9.952;2024-03-23T08:15:31;7.40;;;5.43;;
8232;SDS011;4157;48.074;9.952;2024-03-23T08:17:59;7.63;;;5.70;;
8232;SDS011;4157;48.074;9.952;2024-03-23T08:20:26;6.80;;;4.55;;
8232;SDS011;4157;48.074;9.952;2024-03-23T08:22:55;7.57;;;4.82;;
8232;SDS011;4157;48.074;9.952;2024-03-23T08:25:22;5.78;;;3.30;;
8232;SDS011;4157;48.074;9.952;2024-03-23T08:27:49;4.57;;;2.78;;
8232;SDS011;4157;48.074;9.952;2024-03-23T08:30:16;5.45;;;2.88;;
8232;SDS011;4157;48.074;9.952;2024-03-23T08:32:44;4.70;;;2.60;;
8232;SDS011;4157;48.074;9.952;2024-03-23T08:35:11;4.00;;;2.30;;
8232;SDS011;4157;48.074;9.952;2024-03-23T08:37:39;3.65;;;1.95;;
8232;SDS011;4157;48.074;9.952;2024-03-23T08:40:07;2.83;;;1.70;;
8232;SDS011;4157;48.074;9.952;2024-03-23T08:42:35;3.08;;;1.70;;
8232;SDS011;4157;48.074;9.952;2024-03-23T08:45:02;4.70;;;1.80;;
8232;SDS011;4157;48.074;9.952;2024-03-23T08:47:32;2.95;;;1.38;;
8232;SDS011;4157;48.074;9.952;2024-03-23T08:50:00;2.15;;;1.20;;
8232;SDS011;4157;48.074;9.952;2024-03-23T08:52:28;3.03;;;1.35;;
8232;SDS011;4157;48.074;9.952;2024-03-23T08:54:55;3.03;;;1.30;;
8232;SDS011;4157;48.074;9.952;2024-03-23T08:57:25;2.17;;;1.20;;
8232;SDS011;4157;48.074;9.952;2024-03-23T08:59:51;1.58;;;1.00;;
8232;SDS011;4157;48.074;9.952;2024-03-23T09:02:19;2.53;;;1.30;;
8232;SDS011;4157;48.074;9.952;2024-03-23T09:04:45;0.77;;;0.60;;
8232;SDS011;4157;48.074;9.952;2024-03-23T09:07:13;1.85;;;0.70;;
8232;SDS011;4157;48.074;9.952;2024-03-23T09:09:40;1.35;;;0.65;;
8232;SDS011;4157;48.074;9.952;2024-03-23T09:12:07;2.10;;;0.70;;
8232;SDS011;4157;48.074;9.952;2024-03-23T09:14:35;1.75;;;0.80;;
8232;SDS011;4157;48.074;9.952;2024-03-23T09:17:03;0.90;;;0.55;;
8232;SDS011;4157;48.074;9.952;2024-03-23T09:19:31;0.38;;;0.38;;
8232;SDS011;4157;48.074;9.952;2024-03-23T09:21:58;1.58;;;0.75;;
8232;SDS011;4157;48.074;9.952;2024-03-23T09:24:25;0.82;;;0.55;;
8232;SDS011;4157;48.074;9.952;2024-03-23T09:26:52;1.52;;;0.90;;
8232;SDS011;4157;48.074;9.952;2024-03-23T09:29:19;1.73;;;0.88;;
8232;SDS011;4157;48.074;9.952;2024-03-23T09:31:48;2.30;;;0.70;;
8232;SDS011;4157;48.074;9.952;2024-03-23T09:34:15;3.33;;;0.90;;
8232;SDS011;4157;48.074;9.952;2024-03-23T09:36:42;2.42;;;0.88;;
8232;SDS011;4157;48.074;9.952;2024-03-23T09:39:09;3.05;;;1.10;;
8232;SDS011;4157;48.074;9.952;2024-03-23T09:41:37;2.78;;;1.30;;
8232;SDS011;4157;48.074;9.952;2024-03-23T09:44:04;3.08;;;1.20;;
8232;SDS011;4157;48.074;9.952;2024-03-23T09:46:32;3.72;;;1.50;;
8232;SDS011;4157;48.074;9.952;2024-03-23T09:49:03;3.05;;;1.33;;
8232;SDS011;4157;48.074;9.952;2024-03-23T09:51:30;5.15;;;1.67;;
8232;SDS011;4157;48.074;9.952;2024-03-23T09:53:57;3.83;;;1.50;;
8232;SDS011;4157;48.074;9.952;2024-03-23T09:56:25;3.55;;;1.42;;
8232;SDS011;4157;48.074;9.952;2024-03-23T09:58:52;6.10;;;1.58;;
8232;SDS011;4157;48.074;9.952;2024-03-23T10:01:27;3.63;;;1.55;;
8232;SDS011;4157;48.074;9.952;2024-03-23T10:03:55;4.10;;;1.50;;
8232;SDS011;4157;48.074;9.952;2024-03-23T10:06:24;2.90;;;1.40;;
8232;SDS011;4157;48.074;9.952;2024-03-23T10:08:51;2.60;;;1.30;;
8232;SDS011;4157;48.074;9.952;2024-03-23T10:11:20;7.43;;;1.50;;
8232;SDS011;4157;48.074;9.952;2024-03-23T10:13:47;3.78;;;1.65;;
8232;SDS011;4157;48.074;9.952;2024-03-23T10:16:21;5.43;;;1.80;;
8232;SDS011;4157;48.074;9.952;2024-03-23T10:18:48;4.35;;;1.70;;
8232;SDS011;4157;48.074;9.952;2024-03-23T10:21:16;3.85;;;1.65;;
8232;SDS011;4157;48.074;9.952;2024-03-23T10:23:44;4.30;;;1.73;;
8232;SDS011;4157;48.074;9.952;2024-03-23T10:26:13;4.30;;;1.90;;
8232;SDS011;4157;48.074;9.952;2024-03-23T10:28:50;5.90;;;1.95;;
8232;SDS011;4157;48.074;9.952;2024-03-23T10:31:18;4.13;;;1.70;;
8232;SDS011;4157;48.074;9.952;2024-03-23T10:33:45;4.47;;;1.90;;
8232;SDS011;4157;48.074;9.952;2024-03-23T10:36:13;3.85;;;2.00;;
8232;SDS011;4157;48.074;9.952;2024-03-23T10:38:40;4.35;;;1.73;;
8232;SDS011;4157;48.074;9.952;2024-03-23T10:41:09;4.45;;;2.00;;
8232;SDS011;4157;48.074;9.952;2024-03-23T10:43:36;4.10;;;1.85;;
8232;SDS011;4157;48.074;9.952;2024-03-23T10:46:04;6.40;;;2.17;;
8232;SDS011;4157;48.074;9.952;2024-03-23T10:48:31;6.00;;;2.20;;
8232;SDS011;4157;48.074;9.952;2024-03-23T10:50:59;4.78;;;2.00;;
8232;SDS011;4157;48.074;9.952;2024-03-23T10:53:26;10.20;;;2.40;;
8232;SDS011;4157;48.074;9.952;2024-03-23T10:55:55;6.97;;;2.20;;
8232;SDS011;4157;48.074;9.952;2024-03-23T10:58:24;4.63;;;2.25;;
8232;SDS011;4157;48.074;9.952;2024-03-23T11:00:53;4.72;;;2.30;;
8232;SDS011;4157;48.074;9.952;2024-03-23T11:03:30;4.63;;;1.75;;
8232;SDS011;4157;48.074;9.952;2024-03-23T11:05:58;4.78;;;2.05;;
8232;SDS011;4157;48.074;9.952;2024-03-23T11:08:32;18.30;;;2.55;;
8232;SDS011;4157;48.074;9.952;2024-03-23T11:11:17;6.22;;;1.85;;
8232;SDS011;4157;48.074;9.952;2024-03-23T11:13:47;6.60;;;2.20;;
8232;SDS011;4157;48.074;9.952;2024-03-23T11:16:21;4.78;;;2.10;;
8232;SDS011;4157;48.074;9.952;2024-03-23T11:18:48;3.28;;;1.70;;
8232;SDS011;4157;48.074;9.952;2024-03-23T11:24:14;5.53;;;2.05;;
8232;SDS011;4157;48.074;9.952;2024-03-23T11:26:41;6.85;;;2.55;;
8232;SDS011;4157;48.074;9.952;2024-03-23T11:29:10;5.38;;;2.50;;
8232;SDS011;4157;48.074;9.952;2024-03-23T11:31:37;7.32;;;2.58;;
8232;SDS011;4157;48.074;9.952;2024-03-23T11:34:04;6.82;;;2.50;;
8232;SDS011;4157;48.074;9.952;2024-03-23T11:36:32;5.72;;;2.50;;
8232;SDS011;4157;48.074;9.952;2024-03-23T11:38:59;6.53;;;2.50;;
8232;SDS011;4157;48.074;9.952;2024-03-23T11:41:45;8.02;;;2.40;;
8232;SDS011;4157;48.074;9.952;2024-03-23T11:44:15;6.82;;;2.95;;
8232;SDS011;4157;48.074;9.952;2024-03-23T11:46:43;7.55;;;2.85;;
8232;SDS011;4157;48.074;9.952;2024-03-23T11:49:22;7.85;;;3.42;;
8232;SDS011;4157;48.074;9.952;2024-03-23T11:51:50;7.35;;;2.80;;
8232;SDS011;4157;48.074;9.952;2024-03-23T11:54:20;7.50;;;2.72;;
8232;SDS011;4157;48.074;9.952;2024-03-23T11:56:54;7.72;;;3.78;;
8232;SDS011;4157;48.074;9.952;2024-03-23T11:59:31;7.82;;;2.50;;
8232;SDS011;4157;48.074;9.952;2024-03-23T12:01:59;8.82;;;4.30;;
8232;SDS011;4157;48.074;9.952;2024-03-23T12:04:26;6.20;;;3.17;;
8232;SDS011;4157;48.074;9.952;2024-03-23T12:07:10;7.60;;;2.85;;
8232;SDS011;4157;48.074;9.952;2024-03-23T12:09:37;7.75;;;3.20;;
8232;SDS011;4157;48.074;9.952;2024-03-23T12:12:08;7.90;;;3.42;;
8232;SDS011;4157;48.074;9.952;2024-03-23T12:14:36;6.15;;;2.83;;
8232;SDS011;4157;48.074;9.952;2024-03-23T12:17:08;7.22;;;2.30;;
8232;SDS011;4157;48.074;9.952;2024-03-23T12:19:35;8.20;;;2.30;;
8232;SDS011;4157;48.074;9.952;2024-03-23T12:22:02;5.25;;;2.20;;
8232;SDS011;4157;48.074;9.952;2024-03-23T12:24:29;5.95;;;2.53;;
8232;SDS011;4157;48.074;9.952;2024-03-23T12:26:59;5.95;;;2.30;;
8232;SDS011;4157;48.074;9.952;2024-03-23T12:29:27;6.38;;;2.42;;
8232;SDS011;4157;48.074;9.952;2024-03-23T12:31:56;5.38;;;2.25;;
8232;SDS011;4157;48.074;9.952;2024-03-23T12:34:23;5.97;;;2.17;;
8232;SDS011;4157;48.074;9.952;2024-03-23T12:36:50;6.70;;;2.35;;
8232;SDS011;4157;48.074;9.952;2024-03-23T12:39:17;9.38;;;2.60;;
8232;SDS011;4157;48.074;9.952;2024-03-23T12:41:46;5.13;;;2.10;;
8232;SDS011;4157;48.074;9.952;2024-03-23T12:44:13;6.05;;;2.13;;
8232;SDS011;4157;48.074;9.952;2024-03-23T12:46:40;9.48;;;2.25;;
8232;SDS011;4157;48.074;9.952;2024-03-23T12:49:09;5.72;;;2.28;;
8232;SDS011;4157;48.074;9.952;2024-03-23T12:51:36;5.63;;;1.70;;
8232;SDS011;4157;48.074;9.952;2024-03-23T12:54:04;5.45;;;1.65;;
8232;SDS011;4157;48.074;9.952;2024-03-23T12:56:31;6.30;;;1.98;;
8232;SDS011;4157;48.074;9.952;2024-03-23T12:58:58;5.13;;;1.85;;
8232;SDS011;4157;48.074;9.952;2024-03-23T13:01:26;5.70;;;1.80;;
8232;SDS011;4157;48.074;9.952;2024-03-23T13:03:53;4.25;;;1.70;;
8232;SDS011;4157;48.074;9.952;2024-03-23T13:06:22;4.28;;;1.70;;
8232;SDS011;4157;48.074;9.952;2024-03-23T13:08:48;5.28;;;1.65;;
8232;SDS011;4157;48.074;9.952;2024-03-23T13:11:16;4.40;;;1.55;;
8232;SDS011;4157;48.074;9.952;2024-03-23T13:13:43;4.65;;;1.63;;
8232;SDS011;4157;48.074;9.952;2024-03-23T13:16:11;3.08;;;1.20;;
8232;SDS011;4157;48.074;9.952;2024-03-23T13:18:38;4.07;;;1.40;;
8232;SDS011;4157;48.074;9.952;2024-03-23T13:21:05;3.92;;;1.83;;
8232;SDS011;4157;48.074;9.952;2024-03-23T13:23:33;3.17;;;1.60;;
8232;SDS011;4157;48.074;9.952;2024-03-23T13:26:03;4.82;;;1.33;;
8232;SDS011;4157;48.074;9.952;2024-03-23T13:28:30;2.08;;;1.10;;
8232;SDS011;4157;48.074;9.952;2024-03-23T13:30:57;3.22;;;1.27;;
8232;SDS011;4157;48.074;9.952;2024-03-23T13:33:29;3.65;;;1.30;;
8232;SDS011;4157;48.074;9.952;2024-03-23T13:35:58;3.00;;;1.50;;
8232;SDS011;4157;48.074;9.952;2024-03-23T13:38:24;2.97;;;1.10;;
8232;SDS011;4157;48.074;9.952;2024-03-23T13:40:54;3.90;;;1.00;;
8232;SDS011;4157;48.074;9.952;2024-03-23T13:43:21;3.55;;;1.27;;
8232;SDS011;4157;48.074;9.952;2024-03-23T13:45:50;5.75;;;2.20;;
8232;SDS011;4157;48.074;9.952;2024-03-23T13:48:17;5.25;;;1.88;;
8232;SDS011;4157;48.074;9.952;2024-03-23T13:50:45;4.93;;;1.40;;
8232;SDS011;4157;48.074;9.952;2024-03-23T13:53:13;4.45;;;1.83;;
8232;SDS011;4157;48.074;9.952;2024-03-23T13:55:45;4.70;;;1.80;;
8232;SDS011;4157;48.074;9.952;2024-03-23T13:58:15;5.78;;;2.15;;
8232;SDS011;4157;48.074;9.952;2024-03-23T14:00:42;5.93;;;2.10;;
8232;SDS011;4157;48.074;9.952;2024-03-23T14:03:09;3.92;;;1.90;;
8232;SDS011;4157;48.074;9.952;2024-03-23T14:05:37;4.75;;;2.00;;
8232;SDS011;4157;48.074;9.952;2024-03-23T14:08:04;4.10;;;1.80;;
8232;SDS011;4157;48.074;9.952;2024-03-23T14:10:31;5.72;;;2.13;;
8232;SDS011;4157;48.074;9.952;2024-03-23T14:12:58;6.00;;;2.08;;
8232;SDS011;4157;48.074;9.952;2024-03-23T14:15:27;7.35;;;2.33;;
8232;SDS011;4157;48.074;9.952;2024-03-23T14:17:54;6.25;;;1.70;;
8232;SDS011;4157;48.074;9.952;2024-03-23T14:20:22;6.88;;;1.85;;
8232;SDS011;4157;48.074;9.952;2024-03-23T14:22:49;5.75;;;2.28;;
8232;SDS011;4157;48.074;9.952;2024-03-23T14:25:17;6.22;;;1.85;;
8232;SDS011;4157;48.074;9.952;2024-03-23T14:27:44;4.82;;;1.55;;
8232;SDS011;4157;48.074;9.952;2024-03-23T14:30:12;5.20;;;1.60;;
8232;SDS011;4157;48.074;9.952;2024-03-23T14:32:40;3.45;;;1.50;;
8232;SDS011;4157;48.074;9.952;2024-03-23T14:35:08;4.30;;;1.58;;
8232;SDS011;4157;48.074;9.952;2024-03-23T14:37:36;4.10;;;1.50;;
8232;SDS011;4157;48.074;9.952;2024-03-23T14:40:04;4.45;;;1.50;;
8232;SDS011;4157;48.074;9.952;2024-03-23T14:42:32;4.70;;;1.33;;
8232;SDS011;4157;48.074;9.952;2024-03-23T14:44:59;4.43;;;1.42;;
8232;SDS011;4157;48.074;9.952;2024-03-23T14:47:26;3.90;;;1.42;;
8232;SDS011;4157;48.074;9.952;2024-03-23T14:49:55;4.15;;;1.40;;
8232;SDS011;4157;48.074;9.952;2024-03-23T14:52:24;4.57;;;1.38;;
8232;SDS011;4157;48.074;9.952;2024-03-23T14:54:51;3.42;;;1.50;;
8232;SDS011;4157;48.074;9.952;2024-03-23T14:57:18;5.63;;;1.75;;
8232;SDS011;4157;48.074;9.952;2024-03-23T14:59:46;6.07;;;1.73;;
8232;SDS011;4157;48.074;9.952;2024-03-23T15:02:13;6.18;;;1.50;;
8232;SDS011;4157;48.074;9.952;2024-03-23T15:04:40;5.13;;;1.40;;
8232;SDS011;4157;48.074;9.952;2024-03-23T15:07:08;5.55;;;1.67;;
8232;SDS011;4157;48.074;9.952;2024-03-23T15:09:36;4.78;;;1.45;;
8232;SDS011;4157;48.074;9.952;2024-03-23T15:12:03;5.13;;;1.30;;
8232;SDS011;4157;48.074;9.952;2024-03-23T15:14:31;4.97;;;1.50;;
8232;SDS011;4157;48.074;9.952;2024-03-23T15:17:00;4.88;;;1.60;;
8232;SDS011;4157;48.074;9.952;2024-03-23T15:19:30;4.00;;;1.40;;
8232;SDS011;4157;48.074;9.952;2024-03-23T15:21:57;7.38;;;2.05;;
8232;SDS011;4157;48.074;9.952;2024-03-23T15:24:26;3.90;;;1.58;;
8232;SDS011;4157;48.074;9.952;2024-03-23T15:26:53;4.13;;;1.40;;
8232;SDS011;4157;48.074;9.952;2024-03-23T15:29:20;3.88;;;1.38;;
8232;SDS011;4157;48.074;9.952;2024-03-23T15:31:48;4.65;;;1.20;;
8232;SDS011;4157;48.074;9.952;2024-03-23T15:34:18;5.82;;;1.40;;
8232;SDS011;4157;48.074;9.952;2024-03-23T15:36:47;5.50;;;1.48;;
8232;SDS011;4157;48.074;9.952;2024-03-23T15:39:16;4.15;;;1.30;;
8232;SDS011;4157;48.074;9.952;2024-03-23T15:41:45;5.00;;;1.85;;
8232;SDS011;4157;48.074;9.952;2024-03-23T15:44:12;3.53;;;1.00;;
8232;SDS011;4157;48.074;9.952;2024-03-23T15:46:39;6.03;;;1.27;;
8232;SDS011;4157;48.074;9.952;2024-03-23T15:49:07;3.78;;;0.93;;
8232;SDS011;4157;48.074;9.952;2024-03-23T15:51:34;3.97;;;1.00;;
8232;SDS011;4157;48.074;9.952;2024-03-23T15:54:02;3.33;;;1.00;;
8232;SDS011;4157;48.074;9.952;2024-03-23T15:56:29;4.15;;;1.20;;
8232;SDS011;4157;48.074;9.952;2024-03-23T15:58:58;3.67;;;1.00;;
8232;SDS011;4157;48.074;9.952;2024-03-23T16:01:31;5.53;;;1.38;;
8232;SDS011;4157;48.074;9.952;2024-03-23T16:03:59;2.72;;;1.10;;
8232;SDS011;4157;48.074;9.952;2024-03-23T16:06:26;3.13;;;1.10;;
8232;SDS011;4157;48.074;9.952;2024-03-23T16:08:54;4.93;;;1.20;;
8232;SDS011;4157;48.074;9.952;2024-03-23T16:11:21;4.03;;;1.45;;
8232;SDS011;4157;48.074;9.952;2024-03-23T16:13:49;3.70;;;1.38;;
8232;SDS011;4157;48.074;9.952;2024-03-23T16:16:17;3.88;;;1.40;;